RIR weather

Flabob Airport
Riverside/Rubidoux/, California, United States

Public forecast

Using degrees Fahrenheit for public forecast. Weather courtesy of forecast.io.

Closest aviation weather report (METAR) to Flabob Airport

Closest report is Riverside Municipal Airport, 2.8 nm (5.2 km) SW. Retrieved 2019/10/14 02:53 UTC (14 minutes ago):

KRAL 140253Z 26009KT 10SM CLR 18/12 A2986 RMK AO2 SLP100 T01780122 53017

Closest aviation forecast (TAF) to Flabob Airport

Forecast is more than 6 hours old.

Closest forecast is March ARB Airport, 10.0 nm (18.5 km) SE. Retrieved 2019/10/13 20:14 UTC (7 hours ago):

TAF KRIV 132000Z 1320/1502 31009KT 9999 SKC QNH2981INS TEMPO 1321/1401 31012G18KT BECMG 1403/1404 VRB04KT 9999 FEW250 QNH2985INS BECMG 1408/1409 15004KT 4800 BR OVC004 QNH2989INS BECMG 1413/1414 15006KT 6000 BR BKN008 QNH2992INS BECMG 1416/1417 VRB06KT 9999 NSW FEW012 QNH2990INS BECMG 1419/1420 31009KT 9999 SKC QNH2986INS TEMPO 1421/1501 31012G18KT TX27/1322Z TN10/1413Z